createdAt,value
2022-12-15T00:00:11.564Z,4.50
2022-12-15T00:02:57.182Z,4.50
2022-12-15T00:05:42.517Z,4.40
2022-12-15T00:08:29.548Z,4.40
2022-12-15T00:11:15.813Z,4.50
2022-12-15T00:14:01.228Z,4.40
2022-12-15T00:16:46.805Z,4.40
2022-12-15T00:19:32.390Z,4.40
2022-12-15T00:22:17.941Z,4.30
2022-12-15T00:25:03.480Z,4.40
2022-12-15T00:27:48.898Z,4.30
2022-12-15T00:30:34.614Z,4.30
2022-12-15T00:33:28.019Z,4.30
2022-12-15T00:36:16.490Z,4.30
2022-12-15T00:38:44.188Z,4.20
2022-12-15T00:41:16.033Z,4.20
2022-12-15T00:43:43.942Z,4.20
2022-12-15T00:46:29.343Z,4.20
2022-12-15T00:48:56.935Z,4.20
2022-12-15T00:51:43.299Z,4.20
2022-12-15T00:54:29.781Z,4.10
2022-12-15T00:57:15.768Z,4.10
2022-12-15T01:00:01.286Z,4.10
2022-12-15T01:02:46.927Z,4.10
2022-12-15T01:05:32.584Z,4.10
2022-12-15T01:08:19.122Z,4.10
2022-12-15T01:11:04.614Z,4.10
2022-12-15T01:13:50.084Z,4.10
2022-12-15T01:16:36.303Z,4.10
2022-12-15T01:19:21.657Z,4.10
2022-12-15T01:21:49.796Z,4.00
2022-12-15T01:24:16.881Z,4.00
2022-12-15T01:26:43.716Z,4.00
2022-12-15T01:29:10.489Z,4.00
2022-12-15T01:31:37.322Z,3.90
2022-12-15T01:34:04.319Z,4.00
2022-12-15T01:36:31.306Z,3.90
2022-12-15T01:38:58.111Z,3.90
2022-12-15T01:41:25.266Z,3.90
2022-12-15T01:43:52.167Z,3.90
2022-12-15T01:46:22.338Z,3.90
2022-12-15T01:49:17.816Z,4.00
2022-12-15T01:51:52.286Z,4.00
2022-12-15T01:54:33.894Z,4.00
2022-12-15T01:57:07.482Z,4.00
2022-12-15T01:59:43.754Z,3.90
2022-12-15T02:02:13.687Z,4.00
2022-12-15T02:04:41.847Z,3.90
2022-12-15T02:07:14.940Z,3.90
2022-12-15T02:09:45.255Z,3.90
2022-12-15T02:12:59.120Z,3.90
2022-12-15T02:15:48.962Z,3.90
2022-12-15T02:18:37.276Z,3.90
2022-12-15T02:21:18.700Z,3.90
2022-12-15T02:24:39.882Z,3.90
2022-12-15T02:27:34.285Z,3.90
2022-12-15T02:30:28.178Z,3.90
2022-12-15T02:33:04.791Z,3.90
2022-12-15T02:35:56.842Z,3.90
2022-12-15T02:38:37.297Z,3.90
2022-12-15T02:41:06.610Z,3.90
2022-12-15T02:43:38.819Z,3.90
2022-12-15T02:46:35.405Z,3.90
2022-12-15T02:49:38.607Z,3.90
2022-12-15T02:52:28.928Z,3.80
2022-12-15T02:55:26.705Z,3.80
2022-12-15T02:58:42.784Z,3.80
2022-12-15T03:01:16.018Z,3.80
2022-12-15T03:03:44.982Z,3.80
2022-12-15T03:06:15.304Z,3.80
2022-12-15T03:08:42.188Z,3.80
2022-12-15T03:11:08.999Z,3.80
2022-12-15T03:13:35.997Z,3.80
2022-12-15T03:16:02.985Z,3.80
2022-12-15T03:18:29.868Z,3.80
2022-12-15T03:20:56.733Z,3.80
2022-12-15T03:23:26.102Z,3.80
2022-12-15T03:25:52.894Z,3.80
2022-12-15T03:28:19.703Z,3.80
2022-12-15T03:30:50.409Z,3.70
2022-12-15T03:33:18.437Z,3.80
2022-12-15T03:35:45.290Z,3.70
2022-12-15T03:38:12.159Z,3.70
2022-12-15T03:40:38.993Z,3.70
2022-12-15T03:43:05.775Z,3.70
2022-12-15T03:45:32.621Z,3.70
2022-12-15T03:47:59.563Z,3.70
2022-12-15T03:50:29.097Z,3.70
2022-12-15T03:53:02.874Z,3.70
2022-12-15T03:55:30.683Z,3.70
2022-12-15T03:57:59.132Z,3.70
2022-12-15T04:00:27.053Z,3.70
2022-12-15T04:02:54.403Z,3.60
2022-12-15T04:05:26.311Z,3.60
2022-12-15T04:07:55.306Z,3.60
2022-12-15T04:10:26.286Z,3.70
2022-12-15T04:13:05.974Z,3.60
2022-12-15T04:15:34.777Z,3.60
2022-12-15T04:18:04.221Z,3.60
2022-12-15T04:20:32.945Z,3.60
2022-12-15T04:23:00.369Z,3.60
2022-12-15T04:25:46.860Z,3.60
2022-12-15T04:28:32.940Z,3.60
2022-12-15T04:31:32.404Z,3.60
2022-12-15T04:34:26.347Z,3.60
2022-12-15T04:37:12.682Z,3.50
2022-12-15T04:40:04.283Z,3.60
2022-12-15T04:42:52.438Z,3.50
2022-12-15T04:45:42.785Z,3.50
2022-12-15T04:48:28.666Z,3.50
2022-12-15T04:51:14.782Z,3.60
2022-12-15T04:54:03.301Z,3.50
2022-12-15T04:56:50.096Z,3.50
2022-12-15T04:59:35.973Z,3.50
2022-12-15T05:02:21.726Z,3.50
2022-12-15T05:05:07.102Z,3.50
2022-12-15T05:07:52.721Z,3.50
2022-12-15T05:10:38.190Z,3.40
2022-12-15T05:13:27.157Z,3.40
2022-12-15T05:16:13.143Z,3.40
2022-12-15T05:18:58.413Z,3.40
2022-12-15T05:21:43.896Z,3.40
2022-12-15T05:24:29.503Z,3.40
2022-12-15T05:27:15.005Z,3.30
2022-12-15T05:30:00.472Z,3.30
2022-12-15T05:32:27.264Z,3.30
2022-12-15T05:34:54.060Z,3.30
2022-12-15T05:37:20.891Z,3.30
2022-12-15T05:39:47.834Z,3.30
2022-12-15T05:42:14.678Z,3.30
2022-12-15T05:44:41.528Z,3.30
2022-12-15T05:47:09.233Z,3.30
2022-12-15T05:49:36.090Z,3.30
2022-12-15T05:52:03.294Z,3.30
2022-12-15T05:54:30.318Z,3.30
2022-12-15T05:56:57.490Z,3.30
2022-12-15T05:59:24.312Z,3.30
2022-12-15T06:01:51.230Z,3.30
2022-12-15T06:04:18.220Z,3.30
2022-12-15T06:06:45.264Z,3.30
2022-12-15T06:09:12.290Z,3.30
2022-12-15T06:11:39.156Z,3.30
2022-12-15T06:14:06.116Z,3.20
2022-12-15T06:16:33.462Z,3.20
2022-12-15T06:19:02.428Z,3.30
2022-12-15T06:21:35.320Z,3.40
2022-12-15T06:24:04.660Z,3.30
2022-12-15T06:26:40.120Z,3.30
2022-12-15T06:29:11.067Z,3.30
2022-12-15T06:31:39.410Z,3.30
2022-12-15T06:34:10.489Z,3.40
2022-12-15T06:36:37.810Z,3.40
2022-12-15T06:39:09.382Z,3.40
2022-12-15T06:41:37.036Z,3.40
2022-12-15T06:44:05.185Z,3.40
2022-12-15T06:46:35.012Z,3.40
2022-12-15T06:49:02.330Z,3.40
2022-12-15T06:51:29.142Z,3.50
2022-12-15T06:53:56.461Z,3.50
2022-12-15T06:56:35.938Z,3.50
2022-12-15T06:59:05.954Z,3.50
2022-12-15T07:01:33.672Z,3.50
2022-12-15T07:04:01.613Z,3.50
2022-12-15T07:06:36.432Z,3.50
2022-12-15T07:09:07.449Z,3.40
2022-12-15T07:11:35.196Z,3.50
2022-12-15T07:14:02.077Z,3.40
2022-12-15T07:16:28.919Z,3.40
2022-12-15T07:18:55.844Z,3.40
2022-12-15T07:21:22.677Z,3.40
2022-12-15T07:23:57.642Z,3.40
2022-12-15T07:26:25.822Z,3.40
2022-12-15T07:28:53.779Z,3.40
2022-12-15T07:31:21.608Z,3.40
2022-12-15T07:33:48.863Z,3.40
2022-12-15T07:36:16.065Z,3.40
2022-12-15T07:38:45.431Z,3.40
2022-12-15T07:41:17.271Z,3.40
2022-12-15T07:43:45.182Z,3.40
2022-12-15T07:46:12.195Z,3.40
2022-12-15T07:48:39.345Z,3.40
2022-12-15T07:51:15.214Z,3.40
2022-12-15T07:53:44.231Z,3.40
2022-12-15T07:56:11.165Z,3.50
2022-12-15T07:58:38.996Z,3.50
2022-12-15T08:01:08.949Z,3.50
2022-12-15T08:03:37.650Z,3.50
2022-12-15T08:06:13.627Z,3.50
2022-12-15T08:08:41.303Z,3.50
2022-12-15T08:11:11.455Z,3.60
2022-12-15T08:16:28.316Z,3.60
2022-12-15T08:18:57.196Z,3.70
2022-12-15T08:21:24.118Z,3.70
2022-12-15T08:23:51.214Z,3.70
2022-12-15T08:26:21.432Z,3.80
2022-12-15T08:28:50.665Z,3.70
2022-12-15T08:31:23.053Z,3.70
2022-12-15T08:33:51.111Z,3.70
2022-12-15T08:36:20.564Z,3.70
2022-12-15T08:38:48.098Z,3.70
2022-12-15T08:41:23.179Z,3.70
2022-12-15T08:43:51.054Z,3.70
2022-12-15T08:46:25.636Z,3.80
2022-12-15T08:48:53.234Z,3.80
2022-12-15T08:51:22.672Z,3.70
2022-12-15T08:53:49.916Z,3.80
2022-12-15T08:56:20.279Z,3.80
2022-12-15T08:58:50.240Z,3.80
2022-12-15T09:01:23.633Z,3.90
2022-12-15T09:03:53.681Z,4.00
2022-12-15T09:06:30.412Z,4.00
2022-12-15T09:09:00.162Z,3.90
2022-12-15T09:11:29.251Z,4.00
2022-12-15T09:13:56.744Z,4.00
2022-12-15T09:16:24.307Z,4.00
2022-12-15T09:18:54.185Z,4.00
2022-12-15T09:21:26.056Z,4.00
2022-12-15T09:24:00.528Z,4.10
2022-12-15T09:26:33.236Z,4.00
2022-12-15T09:29:01.994Z,4.10
2022-12-15T09:31:37.512Z,4.20
2022-12-15T09:34:04.381Z,4.20
2022-12-15T09:36:35.563Z,4.20
2022-12-15T09:39:03.059Z,4.20
2022-12-15T09:41:35.953Z,4.20
2022-12-15T09:44:15.987Z,4.30
2022-12-15T09:47:11.438Z,4.30
2022-12-15T09:49:56.866Z,4.30
2022-12-15T09:52:54.752Z,4.30
2022-12-15T09:55:29.772Z,4.40
2022-12-15T09:58:06.025Z,4.30
2022-12-15T10:01:12.215Z,4.30
2022-12-15T10:03:56.298Z,4.30
2022-12-15T10:06:41.163Z,4.30
2022-12-15T10:09:21.511Z,4.30
2022-12-15T10:12:12.344Z,4.40
2022-12-15T10:15:23.735Z,4.40
2022-12-15T10:18:04.956Z,4.40
2022-12-15T10:20:33.013Z,4.40
2022-12-15T10:23:13.096Z,4.40
2022-12-15T10:25:45.712Z,4.40
2022-12-15T10:28:15.860Z,4.50
2022-12-15T10:31:16.576Z,4.50
2022-12-15T10:33:48.615Z,4.50
2022-12-15T10:36:17.482Z,4.50
2022-12-15T10:41:34.839Z,4.60
2022-12-15T10:44:02.738Z,4.70
2022-12-15T10:46:32.204Z,4.70
2022-12-15T10:49:21.957Z,4.70
2022-12-15T10:51:56.269Z,4.70
2022-12-15T10:54:30.695Z,4.80
2022-12-15T10:57:16.994Z,4.90
2022-12-15T10:59:44.157Z,4.90
2022-12-15T11:02:34.238Z,5.00
2022-12-15T11:05:16.302Z,5.10
2022-12-15T11:07:53.900Z,5.10
2022-12-15T11:10:24.141Z,5.20
2022-12-15T11:13:15.482Z,5.20
2022-12-15T11:15:50.721Z,5.30
2022-12-15T11:18:41.290Z,5.30
2022-12-15T11:21:19.361Z,5.30
2022-12-15T11:23:56.482Z,5.30
2022-12-15T11:26:36.777Z,5.20
2022-12-15T11:29:13.260Z,5.20
2022-12-15T11:31:44.108Z,5.30
2022-12-15T11:34:25.945Z,5.30
2022-12-15T11:37:34.150Z,5.30
2022-12-15T11:40:39.661Z,5.30
2022-12-15T11:43:27.627Z,5.30
2022-12-15T11:46:27.792Z,5.30
2022-12-15T11:49:44.472Z,5.30
2022-12-15T11:52:53.277Z,5.30
2022-12-15T11:55:37.487Z,5.20
2022-12-15T11:58:29.972Z,5.20
2022-12-15T12:01:36.736Z,5.20
2022-12-15T12:04:28.977Z,5.10
2022-12-15T12:07:52.669Z,5.20
2022-12-15T12:10:55.696Z,5.10
2022-12-15T12:13:55.805Z,5.00
2022-12-15T12:16:25.705Z,5.00
2022-12-15T12:19:06.197Z,5.10
2022-12-15T12:21:51.505Z,5.00
2022-12-15T12:24:36.790Z,4.90
2022-12-15T12:27:50.469Z,5.00
2022-12-15T12:30:22.388Z,5.00
2022-12-15T12:32:54.213Z,5.00
2022-12-15T12:35:46.591Z,5.00
2022-12-15T12:38:26.275Z,5.00
2022-12-15T12:41:28.501Z,5.00
2022-12-15T12:44:00.797Z,5.00
2022-12-15T12:46:36.143Z,5.00
2022-12-15T12:49:13.182Z,5.00
2022-12-15T12:51:42.435Z,5.00
2022-12-15T12:54:34.352Z,5.00
2022-12-15T12:57:31.087Z,5.00
2022-12-15T13:00:07.261Z,5.00
2022-12-15T13:02:38.158Z,5.00
2022-12-15T13:05:30.811Z,5.00
2022-12-15T13:08:06.755Z,5.00
2022-12-15T13:10:50.835Z,4.90
2022-12-15T13:13:30.051Z,4.90
2022-12-15T13:16:26.725Z,4.90
2022-12-15T13:19:04.954Z,4.90
2022-12-15T13:21:48.554Z,4.80
2022-12-15T13:24:41.260Z,4.80
2022-12-15T13:27:14.201Z,4.90
2022-12-15T13:29:57.361Z,4.80
2022-12-15T13:32:34.448Z,4.80
2022-12-15T13:35:13.655Z,4.80
2022-12-15T13:37:57.443Z,4.70
2022-12-15T13:40:51.469Z,4.70
2022-12-15T13:43:27.474Z,4.70
2022-12-15T13:46:00.129Z,4.60
2022-12-15T13:48:55.514Z,4.60
2022-12-15T13:51:32.342Z,4.60
2022-12-15T13:54:16.721Z,4.50
2022-12-15T13:57:05.538Z,4.60
2022-12-15T13:59:49.437Z,4.50
2022-12-15T14:02:28.362Z,4.50
2022-12-15T14:05:14.803Z,4.50
2022-12-15T14:08:07.601Z,4.40
2022-12-15T14:10:51.592Z,4.50
2022-12-15T14:13:35.174Z,4.30
2022-12-15T14:16:21.786Z,4.30
2022-12-15T14:19:16.795Z,4.20
2022-12-15T14:21:58.025Z,4.10
2022-12-15T14:24:39.627Z,4.10
2022-12-15T14:27:06.960Z,4.10
2022-12-15T14:29:33.981Z,4.10
2022-12-15T14:32:01.263Z,4.00
2022-12-15T14:34:39.312Z,3.90
2022-12-15T14:37:15.269Z,3.90
2022-12-15T14:39:47.705Z,3.90
2022-12-15T14:42:27.936Z,3.90
2022-12-15T14:44:58.332Z,3.80
2022-12-15T14:47:28.429Z,3.80
2022-12-15T14:49:58.154Z,3.80
2022-12-15T14:52:34.135Z,3.80
2022-12-15T14:55:20.875Z,3.80
2022-12-15T14:57:52.309Z,3.90
2022-12-15T15:00:34.275Z,3.80
2022-12-15T15:03:04.066Z,4.60
2022-12-15T15:03:19.907Z,3.70
2022-12-15T15:05:57.182Z,3.70
2022-12-15T15:08:33.320Z,3.70
2022-12-15T15:11:31.086Z,3.60
2022-12-15T15:14:05.802Z,3.60
2022-12-15T15:16:32.801Z,3.60
2022-12-15T15:19:03.135Z,3.60
2022-12-15T15:21:36.919Z,3.60
2022-12-15T15:24:25.264Z,3.60
2022-12-15T15:26:53.353Z,3.60
2022-12-15T15:29:41.890Z,3.60
2022-12-15T15:32:21.963Z,3.60
2022-12-15T15:34:49.598Z,3.50
2022-12-15T15:37:24.128Z,3.60
2022-12-15T15:39:54.143Z,3.60
2022-12-15T15:42:21.647Z,3.60
2022-12-15T15:44:48.805Z,3.60
2022-12-15T15:47:28.571Z,3.60
2022-12-15T15:49:59.586Z,3.60
2022-12-15T15:52:29.733Z,3.60
2022-12-15T15:54:56.679Z,3.60
2022-12-15T15:57:23.517Z,3.60
2022-12-15T15:59:51.031Z,3.60
2022-12-15T16:02:18.037Z,3.60
2022-12-15T16:04:45.616Z,3.60
2022-12-15T16:07:27.529Z,3.60
2022-12-15T16:09:55.040Z,3.70
2022-12-15T16:12:35.846Z,3.60
2022-12-15T16:15:02.643Z,3.60
2022-12-15T16:17:29.462Z,3.70
2022-12-15T16:19:56.344Z,3.70
2022-12-15T16:22:23.307Z,3.60
2022-12-15T16:24:50.245Z,3.70
2022-12-15T16:27:17.378Z,3.60
2022-12-15T16:29:44.553Z,3.70
2022-12-15T16:32:13.276Z,3.60
2022-12-15T16:34:41.936Z,3.60
2022-12-15T16:37:28.548Z,3.60
2022-12-15T16:39:55.479Z,3.60
2022-12-15T16:42:22.297Z,3.60
2022-12-15T16:44:49.234Z,3.50
2022-12-15T16:47:16.280Z,3.60
2022-12-15T16:49:43.142Z,3.50
2022-12-15T16:52:21.126Z,3.50
2022-12-15T16:54:50.006Z,3.50
2022-12-15T16:57:17.187Z,3.50
2022-12-15T16:59:44.030Z,3.60
2022-12-15T17:02:38.303Z,3.50
2022-12-15T17:05:06.458Z,3.50
2022-12-15T17:07:33.508Z,3.50
2022-12-15T17:10:00.555Z,3.50
2022-12-15T17:12:27.716Z,3.50
2022-12-15T17:14:54.560Z,3.40
2022-12-15T17:17:21.572Z,3.50
2022-12-15T17:20:27.437Z,3.50
2022-12-15T17:22:37.411Z,3.40
2022-12-15T17:25:04.972Z,3.40
2022-12-15T17:27:32.058Z,3.50
2022-12-15T17:30:00.420Z,3.50
2022-12-15T17:32:27.365Z,3.40
2022-12-15T17:34:54.301Z,3.40
2022-12-15T17:37:21.340Z,3.40
2022-12-15T17:39:51.239Z,3.50
2022-12-15T17:42:20.674Z,3.50
2022-12-15T17:44:48.849Z,3.40
2022-12-15T17:47:17.087Z,3.50
2022-12-15T17:49:44.431Z,3.40
2022-12-15T17:52:29.744Z,3.40
2022-12-15T17:54:57.515Z,3.40
2022-12-15T17:57:25.510Z,3.50
2022-12-15T17:59:53.141Z,3.40
2022-12-15T18:02:20.099Z,3.50
2022-12-15T18:04:47.014Z,3.50
2022-12-15T18:07:24.250Z,3.50
2022-12-15T18:09:52.916Z,3.50
2022-12-15T18:12:26.972Z,3.50
2022-12-15T18:14:55.954Z,3.50
2022-12-15T18:17:23.972Z,3.50
2022-12-15T18:19:50.876Z,3.40
2022-12-15T18:22:24.293Z,3.40
2022-12-15T18:24:53.837Z,3.40
2022-12-15T18:27:27.973Z,3.50
2022-12-15T18:29:56.651Z,3.40
2022-12-15T18:32:27.105Z,3.40
2022-12-15T18:34:55.280Z,3.40
2022-12-15T18:37:24.842Z,3.40
2022-12-15T18:39:52.331Z,3.50
2022-12-15T18:42:21.787Z,3.40
2022-12-15T18:44:52.578Z,3.50
2022-12-15T18:47:23.652Z,3.50
2022-12-15T18:49:50.789Z,3.50
2022-12-15T18:52:27.620Z,3.50
2022-12-15T18:54:57.260Z,3.50
2022-12-15T18:57:33.102Z,3.50
2022-12-15T19:00:18.076Z,3.50
2022-12-15T19:02:45.144Z,3.50
2022-12-15T19:05:27.657Z,3.50
2022-12-15T19:08:04.079Z,3.60
2022-12-15T19:10:34.507Z,3.60
2022-12-15T19:13:01.451Z,3.60
2022-12-15T19:15:28.300Z,3.60
2022-12-15T19:18:14.119Z,3.60
2022-12-15T19:21:00.770Z,3.70
2022-12-15T19:23:27.752Z,3.70
2022-12-15T19:25:54.864Z,3.70
2022-12-15T19:28:23.592Z,3.60
2022-12-15T19:30:52.173Z,3.70
2022-12-15T19:33:20.044Z,3.70
2022-12-15T19:35:51.225Z,3.70
2022-12-15T19:38:27.296Z,3.70
2022-12-15T19:40:55.825Z,3.70
2022-12-15T19:43:24.616Z,3.70
2022-12-15T19:45:52.637Z,3.80
2022-12-15T19:48:23.874Z,3.70
2022-12-15T19:50:52.432Z,3.70
2022-12-15T19:53:29.767Z,3.70
2022-12-15T19:56:01.560Z,3.80
2022-12-15T19:58:36.183Z,3.70
2022-12-15T20:01:14.655Z,3.70
2022-12-15T20:03:44.165Z,3.70
2022-12-15T20:06:22.937Z,3.80
2022-12-15T20:08:53.460Z,3.80
2022-12-15T20:11:32.095Z,3.80
2022-12-15T20:13:59.276Z,3.90
2022-12-15T20:16:26.117Z,3.90
2022-12-15T20:18:55.986Z,3.90
2022-12-15T20:21:31.465Z,3.90
2022-12-15T20:24:10.631Z,3.90
2022-12-15T20:26:39.676Z,3.90
2022-12-15T20:29:29.673Z,3.90
2022-12-15T20:31:59.460Z,3.90
2022-12-15T20:34:26.458Z,4.00
2022-12-15T20:36:53.265Z,3.90
2022-12-15T20:39:30.001Z,3.90
2022-12-15T20:41:57.645Z,3.90
2022-12-15T20:44:24.789Z,3.90
2022-12-15T20:46:51.990Z,3.90
2022-12-15T20:49:22.358Z,3.90
2022-12-15T20:51:49.895Z,4.00
2022-12-15T20:54:21.128Z,4.00
2022-12-15T20:56:49.479Z,4.00
2022-12-15T20:59:18.052Z,4.00
2022-12-15T21:01:46.417Z,4.10
2022-12-15T21:04:21.848Z,4.10
2022-12-15T21:06:54.320Z,4.10
2022-12-15T21:09:23.377Z,4.20
2022-12-15T21:11:51.804Z,4.20
2022-12-15T21:14:22.401Z,4.20
2022-12-15T21:16:50.185Z,4.10
2022-12-15T21:19:21.783Z,4.20
2022-12-15T21:21:55.341Z,4.20
2022-12-15T21:24:28.597Z,4.30
2022-12-15T21:26:56.145Z,4.30
2022-12-15T21:29:27.664Z,4.30
2022-12-15T21:31:54.586Z,4.30
2022-12-15T21:34:21.518Z,4.40
2022-12-15T21:36:55.259Z,4.30
2022-12-15T21:39:30.011Z,4.30
2022-12-15T21:42:16.760Z,4.40
2022-12-15T21:44:44.550Z,4.40
2022-12-15T21:47:52.091Z,4.40
2022-12-15T21:50:19.778Z,4.40
2022-12-15T21:52:47.793Z,4.40
2022-12-15T21:55:22.104Z,4.40
2022-12-15T21:57:49.359Z,4.50
2022-12-15T22:00:19.981Z,4.40
2022-12-15T22:02:49.782Z,4.40
2022-12-15T22:05:30.148Z,4.40
2022-12-15T22:08:12.950Z,4.50
2022-12-15T22:10:39.875Z,4.50
2022-12-15T22:13:12.563Z,4.50
2022-12-15T22:15:39.443Z,4.50
2022-12-15T22:18:14.558Z,4.60
2022-12-15T22:20:42.393Z,4.60
2022-12-15T22:23:09.188Z,4.60
2022-12-15T22:25:36.055Z,4.60
2022-12-15T22:28:02.971Z,4.60
2022-12-15T22:30:29.845Z,4.60
2022-12-15T22:32:56.823Z,4.60
2022-12-15T22:35:26.367Z,4.60
2022-12-15T22:37:56.474Z,4.70
2022-12-15T22:40:24.379Z,4.70
2022-12-15T22:42:57.739Z,4.70
2022-12-15T22:45:24.893Z,4.70
2022-12-15T22:47:53.247Z,4.80
2022-12-15T22:50:26.272Z,4.70
2022-12-15T22:52:53.139Z,4.80
2022-12-15T22:55:24.200Z,4.80
2022-12-15T22:58:01.262Z,4.80
2022-12-15T23:00:28.455Z,4.80
2022-12-15T23:05:29.385Z,4.80
2022-12-15T23:07:56.252Z,4.80
2022-12-15T23:10:41.414Z,4.80
2022-12-15T23:13:08.302Z,4.80
2022-12-15T23:15:54.766Z,4.80
2022-12-15T23:18:21.888Z,4.80
2022-12-15T23:20:48.749Z,4.80
2022-12-15T23:23:15.545Z,4.80
2022-12-15T23:25:43.244Z,4.80
2022-12-15T23:28:10.093Z,4.80
2022-12-15T23:30:36.972Z,4.80
2022-12-15T23:33:04.243Z,4.80
2022-12-15T23:35:31.338Z,4.80
2022-12-15T23:37:58.797Z,4.80
2022-12-15T23:40:25.625Z,4.80
2022-12-15T23:42:53.671Z,4.80
2022-12-15T23:45:21.001Z,4.90
2022-12-15T23:47:47.860Z,4.80
2022-12-15T23:50:14.808Z,4.80
2022-12-15T23:52:41.756Z,4.80
2022-12-15T23:55:11.729Z,4.80
2022-12-15T23:57:39.394Z,4.80
